sensor_id;sensor_type;location;lat;lon;timestamp;temperature;humidity
42841;DHT22;28491;46.898;7.660;2022-09-12T00:00:27;12.80;74.30
42841;DHT22;28491;46.898;7.660;2022-09-12T00:02:53;12.60;74.60
42841;DHT22;28491;46.898;7.660;2022-09-12T00:05:20;12.60;74.90
42841;DHT22;28491;46.898;7.660;2022-09-12T00:07:46;12.60;75.00
42841;DHT22;28491;46.898;7.660;2022-09-12T00:10:13;12.60;75.10
42841;DHT22;28491;46.898;7.660;2022-09-12T00:12:38;12.50;74.90
42841;DHT22;28491;46.898;7.660;2022-09-12T00:15:05;12.60;75.10
42841;DHT22;28491;46.898;7.660;2022-09-12T00:17:33;12.50;74.90
42841;DHT22;28491;46.898;7.660;2022-09-12T00:19:59;12.50;75.20
42841;DHT22;28491;46.898;7.660;2022-09-12T00:22:25;12.40;75.20
42841;DHT22;28491;46.898;7.660;2022-09-12T00:24:50;12.40;75.50
42841;DHT22;28491;46.898;7.660;2022-09-12T00:27:16;12.50;75.20
42841;DHT22;28491;46.898;7.660;2022-09-12T00:29:41;12.50;75.20
42841;DHT22;28491;46.898;7.660;2022-09-12T00:32:07;12.50;75.10
42841;DHT22;28491;46.898;7.660;2022-09-12T00:34:32;12.50;75.30
42841;DHT22;28491;46.898;7.660;2022-09-12T00:36:58;12.40;75.00
42841;DHT22;28491;46.898;7.660;2022-09-12T00:39:24;12.40;74.80
42841;DHT22;28491;46.898;7.660;2022-09-12T00:41:49;12.30;74.90
42841;DHT22;28491;46.898;7.660;2022-09-12T00:46:44;12.30;75.70
42841;DHT22;28491;46.898;7.660;2022-09-12T00:49:19;12.30;75.70
42841;DHT22;28491;46.898;7.660;2022-09-12T00:52:09;12.20;75.80
42841;DHT22;28491;46.898;7.660;2022-09-12T00:54:41;12.20;75.70
42841;DHT22;28491;46.898;7.660;2022-09-12T00:57:09;12.30;75.70
42841;DHT22;28491;46.898;7.660;2022-09-12T00:59:53;12.10;75.60
42841;DHT22;28491;46.898;7.660;2022-09-12T01:02:20;12.10;75.40
42841;DHT22;28491;46.898;7.660;2022-09-12T01:04:45;12.00;76.30
42841;DHT22;28491;46.898;7.660;2022-09-12T01:07:12;12.00;76.70
42841;DHT22;28491;46.898;7.660;2022-09-12T01:09:41;12.10;76.80
42841;DHT22;28491;46.898;7.660;2022-09-12T01:12:07;12.10;77.90
42841;DHT22;28491;46.898;7.660;2022-09-12T01:14:33;12.10;77.30
42841;DHT22;28491;46.898;7.660;2022-09-12T01:16:59;12.10;77.20
42841;DHT22;28491;46.898;7.660;2022-09-12T01:25:07;12.00;76.00
42841;DHT22;28491;46.898;7.660;2022-09-12T01:33:33;12.00;76.80
42841;DHT22;28491;46.898;7.660;2022-09-12T01:36:27;12.00;76.50
42841;DHT22;28491;46.898;7.660;2022-09-12T01:39:00;11.90;76.50
42841;DHT22;28491;46.898;7.660;2022-09-12T01:46:42;11.90;77.60
42841;DHT22;28491;46.898;7.660;2022-09-12T01:49:19;11.90;77.40
42841;DHT22;28491;46.898;7.660;2022-09-12T01:51:59;11.90;77.40
42841;DHT22;28491;46.898;7.660;2022-09-12T01:54:59;11.90;76.70
42841;DHT22;28491;46.898;7.660;2022-09-12T01:57:50;12.00;76.80
42841;DHT22;28491;46.898;7.660;2022-09-12T02:00:17;11.90;76.70
42841;DHT22;28491;46.898;7.660;2022-09-12T02:03:03;11.80;77.10
42841;DHT22;28491;46.898;7.660;2022-09-12T02:05:39;11.80;77.30
42841;DHT22;28491;46.898;7.660;2022-09-12T02:08:15;11.80;77.70
42841;DHT22;28491;46.898;7.660;2022-09-12T02:11:01;11.90;77.50
42841;DHT22;28491;46.898;7.660;2022-09-12T02:13:35;11.80;77.10
42841;DHT22;28491;46.898;7.660;2022-09-12T02:16:06;11.80;77.60
42841;DHT22;28491;46.898;7.660;2022-09-12T02:18:42;11.70;77.80
42841;DHT22;28491;46.898;7.660;2022-09-12T02:21:09;11.70;78.00
42841;DHT22;28491;46.898;7.660;2022-09-12T02:23:39;11.70;77.90
42841;DHT22;28491;46.898;7.660;2022-09-12T02:26:12;11.70;78.00
42841;DHT22;28491;46.898;7.660;2022-09-12T02:28:41;11.70;78.10
42841;DHT22;28491;46.898;7.660;2022-09-12T02:31:10;11.60;78.30
42841;DHT22;28491;46.898;7.660;2022-09-12T02:33:55;11.60;77.20
42841;DHT22;28491;46.898;7.660;2022-09-12T02:39:32;11.50;77.80
42841;DHT22;28491;46.898;7.660;2022-09-12T02:42:00;11.60;78.10
42841;DHT22;28491;46.898;7.660;2022-09-12T02:44:28;11.50;77.70
42841;DHT22;28491;46.898;7.660;2022-09-12T02:47:05;11.50;77.90
42841;DHT22;28491;46.898;7.660;2022-09-12T02:49:33;11.50;77.90
42841;DHT22;28491;46.898;7.660;2022-09-12T02:52:00;11.40;78.10
42841;DHT22;28491;46.898;7.660;2022-09-12T02:54:27;11.50;78.00
42841;DHT22;28491;46.898;7.660;2022-09-12T02:56:53;11.30;77.60
42841;DHT22;28491;46.898;7.660;2022-09-12T02:59:21;11.20;78.40
42841;DHT22;28491;46.898;7.660;2022-09-12T03:08:11;11.30;79.20
42841;DHT22;28491;46.898;7.660;2022-09-12T03:16:50;11.30;78.30
42841;DHT22;28491;46.898;7.660;2022-09-12T03:21:27;11.20;78.40
42841;DHT22;28491;46.898;7.660;2022-09-12T03:26:43;11.20;79.60
42841;DHT22;28491;46.898;7.660;2022-09-12T03:29:11;11.20;79.30
42841;DHT22;28491;46.898;7.660;2022-09-12T03:31:47;11.20;79.40
42841;DHT22;28491;46.898;7.660;2022-09-12T03:34:13;11.10;79.90
42841;DHT22;28491;46.898;7.660;2022-09-12T03:36:38;11.20;79.20
42841;DHT22;28491;46.898;7.660;2022-09-12T03:39:05;11.20;78.80
42841;DHT22;28491;46.898;7.660;2022-09-12T03:41:31;11.20;77.70
42841;DHT22;28491;46.898;7.660;2022-09-12T03:43:56;11.10;78.40
42841;DHT22;28491;46.898;7.660;2022-09-12T03:46:22;11.10;78.80
42841;DHT22;28491;46.898;7.660;2022-09-12T03:48:47;11.00;78.60
42841;DHT22;28491;46.898;7.660;2022-09-12T03:51:15;10.90;79.00
42841;DHT22;28491;46.898;7.660;2022-09-12T03:53:40;10.90;79.50
42841;DHT22;28491;46.898;7.660;2022-09-12T03:56:07;10.90;79.70
42841;DHT22;28491;46.898;7.660;2022-09-12T03:58:34;10.90;79.60
42841;DHT22;28491;46.898;7.660;2022-09-12T04:01:06;10.90;79.70
42841;DHT22;28491;46.898;7.660;2022-09-12T04:03:31;10.90;79.50
42841;DHT22;28491;46.898;7.660;2022-09-12T04:05:57;10.90;80.70
42841;DHT22;28491;46.898;7.660;2022-09-12T04:08:22;10.90;80.40
42841;DHT22;28491;46.898;7.660;2022-09-12T04:10:48;10.90;81.20
42841;DHT22;28491;46.898;7.660;2022-09-12T04:13:14;10.90;81.30
42841;DHT22;28491;46.898;7.660;2022-09-12T04:15:39;10.90;81.20
42841;DHT22;28491;46.898;7.660;2022-09-12T04:18:05;10.90;81.50
42841;DHT22;28491;46.898;7.660;2022-09-12T04:20:30;11.00;81.20
42841;DHT22;28491;46.898;7.660;2022-09-12T04:22:56;10.90;80.80
42841;DHT22;28491;46.898;7.660;2022-09-12T04:25:21;10.90;80.70
42841;DHT22;28491;46.898;7.660;2022-09-12T04:27:48;10.80;80.80
42841;DHT22;28491;46.898;7.660;2022-09-12T04:30:13;10.80;80.40
42841;DHT22;28491;46.898;7.660;2022-09-12T04:32:39;10.80;80.80
42841;DHT22;28491;46.898;7.660;2022-09-12T04:35:05;10.80;81.10
42841;DHT22;28491;46.898;7.660;2022-09-12T04:37:31;10.80;80.00
42841;DHT22;28491;46.898;7.660;2022-09-12T04:39:56;10.70;79.40
42841;DHT22;28491;46.898;7.660;2022-09-12T04:42:23;10.70;80.10
42841;DHT22;28491;46.898;7.660;2022-09-12T04:44:49;10.70;80.00
42841;DHT22;28491;46.898;7.660;2022-09-12T04:47:14;10.70;79.70
42841;DHT22;28491;46.898;7.660;2022-09-12T04:49:41;10.50;79.00
42841;DHT22;28491;46.898;7.660;2022-09-12T04:52:06;10.60;79.10
42841;DHT22;28491;46.898;7.660;2022-09-12T04:54:32;10.50;79.60
42841;DHT22;28491;46.898;7.660;2022-09-12T04:56:58;10.50;80.60
42841;DHT22;28491;46.898;7.660;2022-09-12T04:59:24;10.50;81.00
42841;DHT22;28491;46.898;7.660;2022-09-12T05:01:49;10.50;81.40
42841;DHT22;28491;46.898;7.660;2022-09-12T05:04:15;10.50;81.70
42841;DHT22;28491;46.898;7.660;2022-09-12T05:06:42;10.60;82.30
42841;DHT22;28491;46.898;7.660;2022-09-12T05:09:10;10.60;81.60
42841;DHT22;28491;46.898;7.660;2022-09-12T05:11:38;10.70;81.10
42841;DHT22;28491;46.898;7.660;2022-09-12T05:14:04;10.70;81.00
42841;DHT22;28491;46.898;7.660;2022-09-12T05:16:30;10.80;79.40
42841;DHT22;28491;46.898;7.660;2022-09-12T05:18:57;10.80;78.30
42841;DHT22;28491;46.898;7.660;2022-09-12T05:21:24;10.80;78.10
42841;DHT22;28491;46.898;7.660;2022-09-12T05:23:54;10.70;77.20
42841;DHT22;28491;46.898;7.660;2022-09-12T05:26:21;10.60;77.50
42841;DHT22;28491;46.898;7.660;2022-09-12T05:28:48;10.60;78.20
42841;DHT22;28491;46.898;7.660;2022-09-12T05:31:18;10.70;78.80
42841;DHT22;28491;46.898;7.660;2022-09-12T05:33:45;10.80;79.40
42841;DHT22;28491;46.898;7.660;2022-09-12T05:36:13;10.90;79.60
42841;DHT22;28491;46.898;7.660;2022-09-12T05:38:39;11.00;78.30
42841;DHT22;28491;46.898;7.660;2022-09-12T05:41:10;11.10;77.30
42841;DHT22;28491;46.898;7.660;2022-09-12T05:43:38;11.20;77.00
42841;DHT22;28491;46.898;7.660;2022-09-12T05:46:05;11.20;76.10
42841;DHT22;28491;46.898;7.660;2022-09-12T05:48:35;11.20;76.70
42841;DHT22;28491;46.898;7.660;2022-09-12T05:51:09;11.30;76.40
42841;DHT22;28491;46.898;7.660;2022-09-12T05:53:36;11.40;76.60
42841;DHT22;28491;46.898;7.660;2022-09-12T05:56:16;11.60;75.90
42841;DHT22;28491;46.898;7.660;2022-09-12T05:58:44;11.60;76.10
42841;DHT22;28491;46.898;7.660;2022-09-12T06:01:17;11.60;75.30
42841;DHT22;28491;46.898;7.660;2022-09-12T06:03:48;11.80;75.30
42841;DHT22;28491;46.898;7.660;2022-09-12T06:06:16;12.30;74.30
42841;DHT22;28491;46.898;7.660;2022-09-12T06:08:45;14.10;67.40
42841;DHT22;28491;46.898;7.660;2022-09-12T06:11:14;16.00;63.10
42841;DHT22;28491;46.898;7.660;2022-09-12T06:13:41;17.30;60.50
42841;DHT22;28491;46.898;7.660;2022-09-12T06:18:38;18.70;48.10
42841;DHT22;28491;46.898;7.660;2022-09-12T06:21:06;19.30;44.80
42841;DHT22;28491;46.898;7.660;2022-09-12T06:23:32;19.60;42.80
42841;DHT22;28491;46.898;7.660;2022-09-12T06:25:58;19.90;37.80
42841;DHT22;28491;46.898;7.660;2022-09-12T06:28:24;20.00;40.80
42841;DHT22;28491;46.898;7.660;2022-09-12T06:30:50;20.20;37.50
42841;DHT22;28491;46.898;7.660;2022-09-12T06:33:16;20.50;36.30
42841;DHT22;28491;46.898;7.660;2022-09-12T06:35:42;20.80;35.00
42841;DHT22;28491;46.898;7.660;2022-09-12T06:38:07;21.10;34.50
42841;DHT22;28491;46.898;7.660;2022-09-12T06:40:34;21.10;34.10
42841;DHT22;28491;46.898;7.660;2022-09-12T06:43:05;20.90;35.30
42841;DHT22;28491;46.898;7.660;2022-09-12T06:45:30;20.90;33.20
42841;DHT22;28491;46.898;7.660;2022-09-12T06:47:57;21.20;34.40
42841;DHT22;28491;46.898;7.660;2022-09-12T06:50:22;21.50;31.50
42841;DHT22;28491;46.898;7.660;2022-09-12T06:52:49;21.50;31.30
42841;DHT22;28491;46.898;7.660;2022-09-12T06:55:15;21.80;33.60
42841;DHT22;28491;46.898;7.660;2022-09-12T06:57:41;21.90;32.30
42841;DHT22;28491;46.898;7.660;2022-09-12T07:00:07;21.40;33.30
42841;DHT22;28491;46.898;7.660;2022-09-12T07:02:33;21.70;34.80
42841;DHT22;28491;46.898;7.660;2022-09-12T07:04:59;22.00;31.20
42841;DHT22;28491;46.898;7.660;2022-09-12T07:07:24;22.30;32.50
42841;DHT22;28491;46.898;7.660;2022-09-12T07:09:50;22.50;29.60
42841;DHT22;28491;46.898;7.660;2022-09-12T07:12:15;22.60;31.20
42841;DHT22;28491;46.898;7.660;2022-09-12T07:14:41;22.80;31.70
42841;DHT22;28491;46.898;7.660;2022-09-12T07:17:07;23.00;30.70
42841;DHT22;28491;46.898;7.660;2022-09-12T07:19:33;22.90;30.70
42841;DHT22;28491;46.898;7.660;2022-09-12T07:21:59;23.00;29.50
42841;DHT22;28491;46.898;7.660;2022-09-12T07:24:25;23.00;30.80
42841;DHT22;28491;46.898;7.660;2022-09-12T07:26:50;23.00;31.50
42841;DHT22;28491;46.898;7.660;2022-09-12T07:29:16;23.30;30.20
42841;DHT22;28491;46.898;7.660;2022-09-12T07:31:42;23.30;31.00
42841;DHT22;28491;46.898;7.660;2022-09-12T07:34:07;23.60;32.10
42841;DHT22;28491;46.898;7.660;2022-09-12T07:36:33;23.70;29.80
42841;DHT22;28491;46.898;7.660;2022-09-12T07:38:59;23.70;30.80
42841;DHT22;28491;46.898;7.660;2022-09-12T07:41:26;23.50;29.40
42841;DHT22;28491;46.898;7.660;2022-09-12T07:43:54;24.00;32.10
42841;DHT22;28491;46.898;7.660;2022-09-12T07:46:20;24.20;28.90
42841;DHT22;28491;46.898;7.660;2022-09-12T07:48:50;24.30;31.90
42841;DHT22;28491;46.898;7.660;2022-09-12T07:51:17;24.70;29.60
42841;DHT22;28491;46.898;7.660;2022-09-12T07:53:43;24.80;29.70
42841;DHT22;28491;46.898;7.660;2022-09-12T07:56:10;24.50;31.60
42841;DHT22;28491;46.898;7.660;2022-09-12T07:58:38;24.80;29.90
42841;DHT22;28491;46.898;7.660;2022-09-12T08:01:18;25.20;29.00
42841;DHT22;28491;46.898;7.660;2022-09-12T08:03:46;25.10;30.00
42841;DHT22;28491;46.898;7.660;2022-09-12T08:06:19;25.30;30.80
42841;DHT22;28491;46.898;7.660;2022-09-12T08:08:46;25.50;30.00
42841;DHT22;28491;46.898;7.660;2022-09-12T08:11:14;25.50;30.00
42841;DHT22;28491;46.898;7.660;2022-09-12T08:13:41;25.50;31.00
42841;DHT22;28491;46.898;7.660;2022-09-12T08:16:14;26.10;29.40
42841;DHT22;28491;46.898;7.660;2022-09-12T08:18:40;26.00;28.60
42841;DHT22;28491;46.898;7.660;2022-09-12T08:21:09;26.00;29.80
42841;DHT22;28491;46.898;7.660;2022-09-12T08:23:36;26.00;28.90
42841;DHT22;28491;46.898;7.660;2022-09-12T08:26:03;26.30;29.90
42841;DHT22;28491;46.898;7.660;2022-09-12T08:28:30;26.30;29.90
42841;DHT22;28491;46.898;7.660;2022-09-12T08:31:04;26.00;29.30
42841;DHT22;28491;46.898;7.660;2022-09-12T08:33:30;25.90;29.70
42841;DHT22;28491;46.898;7.660;2022-09-12T08:36:12;26.00;29.00
42841;DHT22;28491;46.898;7.660;2022-09-12T08:38:40;25.80;29.50
42841;DHT22;28491;46.898;7.660;2022-09-12T08:41:28;26.20;31.70
42841;DHT22;28491;46.898;7.660;2022-09-12T08:55:32;25.40;31.50
42841;DHT22;28491;46.898;7.660;2022-09-12T08:58:00;24.80;35.10
42841;DHT22;28491;46.898;7.660;2022-09-12T09:06:29;23.80;45.10
42841;DHT22;28491;46.898;7.660;2022-09-12T09:11:56;23.50;41.70
42841;DHT22;28491;46.898;7.660;2022-09-12T09:22:53;23.60;46.60
42841;DHT22;28491;46.898;7.660;2022-09-12T09:25:23;23.70;44.10
42841;DHT22;28491;46.898;7.660;2022-09-12T09:28:09;23.70;42.40
42841;DHT22;28491;46.898;7.660;2022-09-12T09:30:37;23.80;44.60
42841;DHT22;28491;46.898;7.660;2022-09-12T09:33:04;23.90;40.20
42841;DHT22;28491;46.898;7.660;2022-09-12T09:38:40;24.00;40.60
42841;DHT22;28491;46.898;7.660;2022-09-12T09:41:28;24.00;40.10
42841;DHT22;28491;46.898;7.660;2022-09-12T09:43:56;23.90;39.00
42841;DHT22;28491;46.898;7.660;2022-09-12T09:46:22;23.90;40.80
42841;DHT22;28491;46.898;7.660;2022-09-12T09:48:49;24.00;36.40
42841;DHT22;28491;46.898;7.660;2022-09-12T09:51:27;23.80;38.50
42841;DHT22;28491;46.898;7.660;2022-09-12T09:53:59;23.80;40.80
42841;DHT22;28491;46.898;7.660;2022-09-12T09:56:35;23.90;35.90
42841;DHT22;28491;46.898;7.660;2022-09-12T09:59:19;23.70;34.50
42841;DHT22;28491;46.898;7.660;2022-09-12T10:01:58;23.70;41.30
42841;DHT22;28491;46.898;7.660;2022-09-12T10:04:38;23.90;42.20
42841;DHT22;28491;46.898;7.660;2022-09-12T10:07:04;24.00;39.70
42841;DHT22;28491;46.898;7.660;2022-09-12T10:09:34;24.00;36.90
42841;DHT22;28491;46.898;7.660;2022-09-12T10:12:19;24.10;40.70
42841;DHT22;28491;46.898;7.660;2022-09-12T10:14:56;24.20;34.70
42841;DHT22;28491;46.898;7.660;2022-09-12T10:17:30;24.30;40.40
42841;DHT22;28491;46.898;7.660;2022-09-12T10:19:57;24.30;41.50
42841;DHT22;28491;46.898;7.660;2022-09-12T10:22:25;24.30;38.10
42841;DHT22;28491;46.898;7.660;2022-09-12T10:24:59;24.10;30.60
42841;DHT22;28491;46.898;7.660;2022-09-12T10:27:30;23.90;31.80
42841;DHT22;28491;46.898;7.660;2022-09-12T10:30:02;24.20;39.00
42841;DHT22;28491;46.898;7.660;2022-09-12T10:32:43;24.70;34.60
42841;DHT22;28491;46.898;7.660;2022-09-12T10:35:24;25.00;37.00
42841;DHT22;28491;46.898;7.660;2022-09-12T10:38:06;25.10;32.70
42841;DHT22;28491;46.898;7.660;2022-09-12T10:40:39;25.40;31.40
42841;DHT22;28491;46.898;7.660;2022-09-12T10:45:56;25.30;36.60
42841;DHT22;28491;46.898;7.660;2022-09-12T10:48:32;25.40;37.70
42841;DHT22;28491;46.898;7.660;2022-09-12T10:50:58;25.30;38.70
42841;DHT22;28491;46.898;7.660;2022-09-12T10:53:27;25.30;36.10
42841;DHT22;28491;46.898;7.660;2022-09-12T10:58:41;25.60;37.60
42841;DHT22;28491;46.898;7.660;2022-09-12T11:01:25;25.40;33.00
42841;DHT22;28491;46.898;7.660;2022-09-12T11:12:02;25.80;32.80
42841;DHT22;28491;46.898;7.660;2022-09-12T11:14:46;25.80;36.60
42841;DHT22;28491;46.898;7.660;2022-09-12T11:26:11;25.70;39.20
42841;DHT22;28491;46.898;7.660;2022-09-12T11:31:38;25.80;35.80
42841;DHT22;28491;46.898;7.660;2022-09-12T11:34:10;25.90;35.70
42841;DHT22;28491;46.898;7.660;2022-09-12T11:39:45;25.70;30.00
42841;DHT22;28491;46.898;7.660;2022-09-12T11:42:19;25.80;35.00
42841;DHT22;28491;46.898;7.660;2022-09-12T11:44:54;26.10;33.20
42841;DHT22;28491;46.898;7.660;2022-09-12T11:47:21;26.20;31.70
42841;DHT22;28491;46.898;7.660;2022-09-12T11:49:49;26.20;34.70
42841;DHT22;28491;46.898;7.660;2022-09-12T11:52:19;26.20;34.50
42841;DHT22;28491;46.898;7.660;2022-09-12T11:54:45;26.30;36.30
42841;DHT22;28491;46.898;7.660;2022-09-12T11:57:30;26.40;32.20
42841;DHT22;28491;46.898;7.660;2022-09-12T12:03:00;26.40;35.70
42841;DHT22;28491;46.898;7.660;2022-09-12T12:05:43;26.30;35.40
42841;DHT22;28491;46.898;7.660;2022-09-12T12:08:12;26.20;34.30
42841;DHT22;28491;46.898;7.660;2022-09-12T12:10:59;26.20;34.10
42841;DHT22;28491;46.898;7.660;2022-09-12T12:13:35;26.20;31.80
42841;DHT22;28491;46.898;7.660;2022-09-12T12:16:11;26.20;34.90
42841;DHT22;28491;46.898;7.660;2022-09-12T12:18:39;26.20;30.30
42841;DHT22;28491;46.898;7.660;2022-09-12T12:34:31;26.30;32.30
42841;DHT22;28491;46.898;7.660;2022-09-12T12:36:58;26.30;31.40
42841;DHT22;28491;46.898;7.660;2022-09-12T12:39:53;26.30;31.80
42841;DHT22;28491;46.898;7.660;2022-09-12T12:48:07;25.70;30.20
42841;DHT22;28491;46.898;7.660;2022-09-12T12:50:34;25.60;30.50
42841;DHT22;28491;46.898;7.660;2022-09-12T12:53:22;25.80;33.30
42841;DHT22;28491;46.898;7.660;2022-09-12T12:55:51;25.80;31.20
42841;DHT22;28491;46.898;7.660;2022-09-12T12:58:34;25.70;30.30
42841;DHT22;28491;46.898;7.660;2022-09-12T13:01:16;25.80;31.70
42841;DHT22;28491;46.898;7.660;2022-09-12T13:04:04;26.00;32.40
42841;DHT22;28491;46.898;7.660;2022-09-12T13:06:39;25.90;30.00
42841;DHT22;28491;46.898;7.660;2022-09-12T13:09:29;25.60;26.20
42841;DHT22;28491;46.898;7.660;2022-09-12T13:12:03;25.70;32.30
42841;DHT22;28491;46.898;7.660;2022-09-12T13:20:14;26.00;32.10
42841;DHT22;28491;46.898;7.660;2022-09-12T13:22:43;25.70;27.80
42841;DHT22;28491;46.898;7.660;2022-09-12T13:25:37;25.40;27.40
42841;DHT22;28491;46.898;7.660;2022-09-12T13:30:39;25.70;33.20
42841;DHT22;28491;46.898;7.660;2022-09-12T13:33:45;25.90;35.10
42841;DHT22;28491;46.898;7.660;2022-09-12T13:39:28;26.10;32.90
42841;DHT22;28491;46.898;7.660;2022-09-12T13:44:23;25.90;33.40
42841;DHT22;28491;46.898;7.660;2022-09-12T13:46:50;25.80;28.50
42841;DHT22;28491;46.898;7.660;2022-09-12T13:49:36;25.70;29.50
42841;DHT22;28491;46.898;7.660;2022-09-12T13:52:13;25.80;29.90
42841;DHT22;28491;46.898;7.660;2022-09-12T13:54:40;25.70;28.30
42841;DHT22;28491;46.898;7.660;2022-09-12T13:59:54;25.60;30.00
42841;DHT22;28491;46.898;7.660;2022-09-12T14:02:22;25.80;35.70
42841;DHT22;28491;46.898;7.660;2022-09-12T14:04:49;25.80;29.50
42841;DHT22;28491;46.898;7.660;2022-09-12T14:10:22;25.80;33.40
42841;DHT22;28491;46.898;7.660;2022-09-12T14:12:50;25.70;32.30
42841;DHT22;28491;46.898;7.660;2022-09-12T14:15:19;25.20;27.90
42841;DHT22;28491;46.898;7.660;2022-09-12T14:17:51;24.60;26.90
42841;DHT22;28491;46.898;7.660;2022-09-12T14:20:20;24.70;32.90
42841;DHT22;28491;46.898;7.660;2022-09-12T14:22:50;24.60;30.50
42841;DHT22;28491;46.898;7.660;2022-09-12T14:25:21;24.70;36.40
42841;DHT22;28491;46.898;7.660;2022-09-12T14:27:53;24.60;31.30
42841;DHT22;28491;46.898;7.660;2022-09-12T14:30:29;24.50;32.60
42841;DHT22;28491;46.898;7.660;2022-09-12T14:35:48;24.60;39.50
42841;DHT22;28491;46.898;7.660;2022-09-12T14:40:44;24.50;35.20
42841;DHT22;28491;46.898;7.660;2022-09-12T14:43:31;24.60;37.20
42841;DHT22;28491;46.898;7.660;2022-09-12T14:46:02;24.60;38.30
42841;DHT22;28491;46.898;7.660;2022-09-12T14:48:31;24.70;34.40
42841;DHT22;28491;46.898;7.660;2022-09-12T14:50:57;24.70;36.80
42841;DHT22;28491;46.898;7.660;2022-09-12T14:53:31;24.60;34.80
42841;DHT22;28491;46.898;7.660;2022-09-12T14:56:05;24.60;32.80
42841;DHT22;28491;46.898;7.660;2022-09-12T14:58:31;24.50;31.10
42841;DHT22;28491;46.898;7.660;2022-09-12T15:06:32;24.80;28.40
42841;DHT22;28491;46.898;7.660;2022-09-12T15:09:05;24.90;29.20
42841;DHT22;28491;46.898;7.660;2022-09-12T15:11:31;24.90;33.00
42841;DHT22;28491;46.898;7.660;2022-09-12T15:14:05;24.80;30.10
42841;DHT22;28491;46.898;7.660;2022-09-12T15:16:31;24.90;30.90
42841;DHT22;28491;46.898;7.660;2022-09-12T15:18:57;24.90;32.20
42841;DHT22;28491;46.898;7.660;2022-09-12T15:21:22;24.70;30.00
42841;DHT22;28491;46.898;7.660;2022-09-12T15:23:49;24.70;28.30
42841;DHT22;28491;46.898;7.660;2022-09-12T15:26:24;24.60;29.70
42841;DHT22;28491;46.898;7.660;2022-09-12T15:28:54;24.50;30.90
42841;DHT22;28491;46.898;7.660;2022-09-12T15:31:24;24.50;30.80
42841;DHT22;28491;46.898;7.660;2022-09-12T15:33:50;24.40;31.90
42841;DHT22;28491;46.898;7.660;2022-09-12T15:36:17;24.50;29.50
42841;DHT22;28491;46.898;7.660;2022-09-12T15:38:44;24.60;32.30
42841;DHT22;28491;46.898;7.660;2022-09-12T15:41:16;24.60;29.20
42841;DHT22;28491;46.898;7.660;2022-09-12T15:43:42;24.40;30.40
42841;DHT22;28491;46.898;7.660;2022-09-12T15:46:11;24.40;29.90
42841;DHT22;28491;46.898;7.660;2022-09-12T15:48:38;24.40;30.00
42841;DHT22;28491;46.898;7.660;2022-09-12T15:51:04;24.30;30.10
42841;DHT22;28491;46.898;7.660;2022-09-12T15:53:30;24.30;33.80
42841;DHT22;28491;46.898;7.660;2022-09-12T15:55:56;24.40;35.70
42841;DHT22;28491;46.898;7.660;2022-09-12T15:58:22;24.30;35.80
42841;DHT22;28491;46.898;7.660;2022-09-12T16:00:47;24.30;31.30
42841;DHT22;28491;46.898;7.660;2022-09-12T16:03:25;24.20;29.60
42841;DHT22;28491;46.898;7.660;2022-09-12T16:06:01;24.30;32.80
42841;DHT22;28491;46.898;7.660;2022-09-12T16:08:28;24.20;34.20
42841;DHT22;28491;46.898;7.660;2022-09-12T16:10:57;24.20;34.50
42841;DHT22;28491;46.898;7.660;2022-09-12T16:13:24;24.00;41.20
42841;DHT22;28491;46.898;7.660;2022-09-12T16:15:51;23.90;42.10
42841;DHT22;28491;46.898;7.660;2022-09-12T16:18:17;23.60;43.40
42841;DHT22;28491;46.898;7.660;2022-09-12T16:20:43;23.60;41.50
42841;DHT22;28491;46.898;7.660;2022-09-12T16:23:12;23.60;39.70
42841;DHT22;28491;46.898;7.660;2022-09-12T16:25:39;23.50;42.00
42841;DHT22;28491;46.898;7.660;2022-09-12T16:28:05;23.30;48.20
42841;DHT22;28491;46.898;7.660;2022-09-12T16:30:32;23.20;43.40
42841;DHT22;28491;46.898;7.660;2022-09-12T16:32:57;23.10;46.00
42841;DHT22;28491;46.898;7.660;2022-09-12T16:35:23;23.00;52.80
42841;DHT22;28491;46.898;7.660;2022-09-12T16:37:48;23.00;51.60
42841;DHT22;28491;46.898;7.660;2022-09-12T16:40:15;22.90;53.80
42841;DHT22;28491;46.898;7.660;2022-09-12T16:42:44;22.90;51.00
42841;DHT22;28491;46.898;7.660;2022-09-12T16:45:10;22.80;54.20
42841;DHT22;28491;46.898;7.660;2022-09-12T16:47:36;22.60;56.10
42841;DHT22;28491;46.898;7.660;2022-09-12T16:50:02;22.40;60.30
42841;DHT22;28491;46.898;7.660;2022-09-12T16:52:28;22.30;61.20
42841;DHT22;28491;46.898;7.660;2022-09-12T16:54:55;22.20;61.70
42841;DHT22;28491;46.898;7.660;2022-09-12T16:57:21;22.00;61.70
42841;DHT22;28491;46.898;7.660;2022-09-12T16:59:47;21.70;63.00
42841;DHT22;28491;46.898;7.660;2022-09-12T17:02:13;21.60;63.40
42841;DHT22;28491;46.898;7.660;2022-09-12T17:04:39;21.60;62.40
42841;DHT22;28491;46.898;7.660;2022-09-12T17:07:05;21.50;62.50
42841;DHT22;28491;46.898;7.660;2022-09-12T17:09:30;21.30;63.20
42841;DHT22;28491;46.898;7.660;2022-09-12T17:11:56;21.30;63.10
42841;DHT22;28491;46.898;7.660;2022-09-12T17:14:22;21.30;63.10
42841;DHT22;28491;46.898;7.660;2022-09-12T17:16:48;21.10;63.60
42841;DHT22;28491;46.898;7.660;2022-09-12T17:19:16;20.90;63.70
42841;DHT22;28491;46.898;7.660;2022-09-12T17:21:43;20.80;64.20
42841;DHT22;28491;46.898;7.660;2022-09-12T17:24:09;20.60;64.80
42841;DHT22;28491;46.898;7.660;2022-09-12T17:26:34;20.60;64.40
42841;DHT22;28491;46.898;7.660;2022-09-12T17:29:00;20.40;64.50
42841;DHT22;28491;46.898;7.660;2022-09-12T17:31:26;20.30;65.40
42841;DHT22;28491;46.898;7.660;2022-09-12T17:33:55;20.10;65.90
42841;DHT22;28491;46.898;7.660;2022-09-12T17:36:21;20.00;66.50
42841;DHT22;28491;46.898;7.660;2022-09-12T17:38:47;20.00;65.90
42841;DHT22;28491;46.898;7.660;2022-09-12T17:41:15;20.00;65.90
42841;DHT22;28491;46.898;7.660;2022-09-12T17:43:46;19.90;66.70
42841;DHT22;28491;46.898;7.660;2022-09-12T17:46:18;19.70;66.30
42841;DHT22;28491;46.898;7.660;2022-09-12T17:48:44;19.60;66.80
42841;DHT22;28491;46.898;7.660;2022-09-12T17:51:13;19.40;67.40
42841;DHT22;28491;46.898;7.660;2022-09-12T17:53:40;19.40;66.90
42841;DHT22;28491;46.898;7.660;2022-09-12T17:56:07;19.40;67.10
42841;DHT22;28491;46.898;7.660;2022-09-12T17:58:33;19.30;68.10
42841;DHT22;28491;46.898;7.660;2022-09-12T18:01:04;19.20;67.80
42841;DHT22;28491;46.898;7.660;2022-09-12T18:03:48;19.10;67.80
42841;DHT22;28491;46.898;7.660;2022-09-12T18:06:16;19.00;68.20
42841;DHT22;28491;46.898;7.660;2022-09-12T18:08:41;18.90;68.20
42841;DHT22;28491;46.898;7.660;2022-09-12T18:11:07;18.80;68.40
42841;DHT22;28491;46.898;7.660;2022-09-12T18:13:33;18.70;68.60
42841;DHT22;28491;46.898;7.660;2022-09-12T18:16:07;18.70;68.50
42841;DHT22;28491;46.898;7.660;2022-09-12T18:18:33;18.50;68.70
42841;DHT22;28491;46.898;7.660;2022-09-12T18:21:00;18.30;68.90